createdAt,value
2018-12-07T00:02:24.783Z,11.10
2018-12-07T00:04:54.278Z,11.10
2018-12-07T00:07:23.867Z,11.10
2018-12-07T00:09:58.473Z,11.10
2018-12-07T00:12:28.953Z,11.10
2018-12-07T00:14:58.238Z,11.10
2018-12-07T00:17:29.053Z,11.10
2018-12-07T00:19:59.353Z,11.10
2018-12-07T00:22:29.154Z,11.10
2018-12-07T00:25:00.903Z,11.10
2018-12-07T00:27:31.747Z,11.10
2018-12-07T00:30:00.695Z,11.10
2018-12-07T00:32:32.916Z,11.10
2018-12-07T00:35:02.540Z,11.10
2018-12-07T00:37:34.362Z,11.10
2018-12-07T00:40:04.974Z,11.10
2018-12-07T00:42:37.050Z,11.10
2018-12-07T00:45:07.814Z,11.10
2018-12-07T00:47:38.161Z,11.10
2018-12-07T00:50:07.960Z,11.10
2018-12-07T00:52:38.747Z,11.10
2018-12-07T00:57:51.637Z,11.10
2018-12-07T01:00:21.923Z,11.00
2018-12-07T01:02:50.326Z,11.10
2018-12-07T01:05:21.631Z,11.00
2018-12-07T01:07:54.359Z,11.10
2018-12-07T01:10:28.517Z,11.10
2018-12-07T01:12:58.273Z,11.00
2018-12-07T01:15:28.615Z,11.10
2018-12-07T01:17:57.637Z,11.00
2018-12-07T01:20:29.323Z,11.00
2018-12-07T01:23:00.312Z,11.10
2018-12-07T01:25:30.901Z,11.10
2018-12-07T01:28:03.499Z,11.10
2018-12-07T01:30:33.385Z,11.10
2018-12-07T01:33:02.351Z,11.10
2018-12-07T01:35:34.746Z,11.10
2018-12-07T01:38:04.786Z,11.10
2018-12-07T01:40:33.760Z,11.10
2018-12-07T01:43:03.876Z,11.10
2018-12-07T01:45:33.938Z,11.10
2018-12-07T01:48:07.208Z,11.10
2018-12-07T01:50:35.876Z,11.10
2018-12-07T01:53:06.432Z,11.10
2018-12-07T01:55:35.210Z,11.10
2018-12-07T01:58:05.159Z,11.10
2018-12-07T02:00:35.528Z,11.10
2018-12-07T02:03:06.881Z,11.10
2018-12-07T02:05:36.717Z,11.10
2018-12-07T02:08:08.037Z,11.10
2018-12-07T02:10:40.262Z,11.10
2018-12-07T02:13:10.181Z,11.10
2018-12-07T02:15:38.951Z,11.10
2018-12-07T02:18:09.083Z,11.10
2018-12-07T02:20:37.687Z,11.10
2018-12-07T02:23:07.621Z,11.10
2018-12-07T02:25:36.003Z,11.10
2018-12-07T02:28:05.460Z,11.00
2018-12-07T02:30:34.929Z,11.10
2018-12-07T02:33:03.749Z,11.10
2018-12-07T02:35:32.259Z,11.00
2018-12-07T02:38:01.579Z,11.00
2018-12-07T02:40:29.967Z,11.00
2018-12-07T02:42:58.358Z,11.00
2018-12-07T02:45:27.468Z,11.00
2018-12-07T02:47:55.850Z,11.00
2018-12-07T02:50:24.494Z,11.00
2018-12-07T02:52:52.867Z,11.00
2018-12-07T02:55:23.181Z,11.00
2018-12-07T02:57:51.570Z,11.00
2018-12-07T03:00:20.198Z,11.00
2018-12-07T03:02:48.548Z,11.00
2018-12-07T03:05:17.020Z,10.90
2018-12-07T03:07:45.699Z,11.00
2018-12-07T03:10:14.599Z,10.90
2018-12-07T03:12:42.973Z,11.00
2018-12-07T03:15:12.895Z,11.00
2018-12-07T03:17:42.502Z,11.00
2018-12-07T03:20:11.904Z,10.90
2018-12-07T03:22:41.144Z,10.90
2018-12-07T03:25:10.348Z,10.90
2018-12-07T03:27:39.143Z,11.00
2018-12-07T03:30:08.890Z,10.90
2018-12-07T03:32:38.070Z,11.00
2018-12-07T03:35:06.961Z,11.00
2018-12-07T03:37:35.325Z,11.00
2018-12-07T03:40:04.607Z,11.00
2018-12-07T03:42:33.449Z,11.00
2018-12-07T03:45:03.236Z,11.00
2018-12-07T03:47:32.602Z,11.00
2018-12-07T03:50:01.001Z,11.00
2018-12-07T03:52:30.602Z,11.00
2018-12-07T03:54:58.994Z,10.90
2018-12-07T03:57:29.672Z,10.90
2018-12-07T04:00:05.113Z,10.90
2018-12-07T04:02:33.978Z,10.90
2018-12-07T04:05:02.795Z,10.90
2018-12-07T04:07:31.213Z,10.90
2018-12-07T04:10:00.559Z,11.00
2018-12-07T04:12:29.179Z,11.00
2018-12-07T04:14:58.545Z,11.00
2018-12-07T04:17:27.236Z,10.90
2018-12-07T04:19:56.396Z,10.90
2018-12-07T04:22:24.798Z,11.00
2018-12-07T04:24:54.301Z,10.90
2018-12-07T04:27:22.922Z,10.90
2018-12-07T04:29:53.358Z,10.90
2018-12-07T04:32:22.294Z,10.90
2018-12-07T04:34:52.410Z,11.00
2018-12-07T04:37:20.860Z,11.00
2018-12-07T04:39:49.528Z,11.00
2018-12-07T04:42:20.400Z,11.00
2018-12-07T04:44:49.371Z,11.00
2018-12-07T04:47:18.910Z,11.00
2018-12-07T04:49:47.365Z,11.00
2018-12-07T04:52:16.720Z,11.00
2018-12-07T04:54:45.720Z,11.00
2018-12-07T04:57:14.989Z,11.00
2018-12-07T04:59:44.617Z,11.00
2018-12-07T05:02:13.306Z,11.00
2018-12-07T05:04:43.979Z,10.90
2018-12-07T05:07:12.363Z,10.90
2018-12-07T05:09:42.231Z,10.90
2018-12-07T05:12:12.347Z,10.90
2018-12-07T05:14:46.329Z,10.90
2018-12-07T05:18:44.155Z,10.90
2018-12-07T05:21:13.327Z,10.90
2018-12-07T05:23:42.577Z,10.90
2018-12-07T05:26:12.823Z,10.90
2018-12-07T05:28:41.886Z,10.90
2018-12-07T05:31:10.274Z,10.90
2018-12-07T05:33:39.435Z,10.90
2018-12-07T05:36:10.051Z,11.00
2018-12-07T05:38:40.257Z,11.00
2018-12-07T05:41:08.751Z,10.90
2018-12-07T05:43:47.169Z,11.00
2018-12-07T05:46:15.565Z,10.90
2018-12-07T05:48:46.740Z,10.90
2018-12-07T05:51:16.900Z,11.00
2018-12-07T05:53:46.998Z,11.00
2018-12-07T05:56:17.778Z,11.00
2018-12-07T05:58:57.820Z,11.00
2018-12-07T06:01:28.928Z,11.00
2018-12-07T06:04:01.876Z,11.00
2018-12-07T06:06:36.279Z,11.00
2018-12-07T06:09:09.662Z,11.00
2018-12-07T06:11:40.213Z,11.00
2018-12-07T06:14:10.932Z,11.00
2018-12-07T06:16:40.586Z,11.00
2018-12-07T06:19:10.837Z,11.00
2018-12-07T06:21:43.824Z,11.00
2018-12-07T06:24:15.431Z,11.00
2018-12-07T06:26:43.804Z,11.00
2018-12-07T06:29:13.133Z,11.00
2018-12-07T06:31:41.797Z,11.00
2018-12-07T06:34:10.816Z,10.90
2018-12-07T06:36:39.274Z,10.90
2018-12-07T06:39:10.595Z,10.90
2018-12-07T06:41:41.063Z,11.00
2018-12-07T06:44:09.822Z,11.00
2018-12-07T06:46:40.712Z,11.00
2018-12-07T06:49:11.472Z,10.90
2018-12-07T06:51:43.020Z,10.90
2018-12-07T06:54:13.924Z,10.90
2018-12-07T06:56:42.800Z,11.00
2018-12-07T06:59:11.846Z,11.00
2018-12-07T07:01:40.593Z,10.90
2018-12-07T07:04:09.591Z,11.00
2018-12-07T07:06:38.270Z,11.00
2018-12-07T07:09:09.087Z,11.00
2018-12-07T07:11:38.046Z,11.00
2018-12-07T07:14:07.423Z,11.00
2018-12-07T07:16:36.857Z,11.00
2018-12-07T07:19:07.245Z,11.00
2018-12-07T07:21:36.361Z,11.00
2018-12-07T07:24:07.253Z,11.00
2018-12-07T07:26:37.603Z,11.00
2018-12-07T07:29:08.040Z,11.00
2018-12-07T07:31:43.467Z,11.00
2018-12-07T07:34:10.075Z,11.00
2018-12-07T07:36:39.144Z,11.00
2018-12-07T07:39:09.279Z,11.00
2018-12-07T07:41:38.850Z,11.00
2018-12-07T07:44:07.268Z,11.00
2018-12-07T07:46:36.512Z,11.00
2018-12-07T07:49:05.894Z,11.00
2018-12-07T07:51:35.292Z,11.00
2018-12-07T07:54:03.672Z,11.00
2018-12-07T07:56:34.931Z,11.00
2018-12-07T07:59:04.430Z,11.00
2018-12-07T08:01:35.221Z,11.00
2018-12-07T08:04:04.209Z,11.00
2018-12-07T08:06:33.165Z,11.00
2018-12-07T08:09:08.394Z,11.00
2018-12-07T08:11:38.627Z,11.00
2018-12-07T08:14:07.816Z,11.00
2018-12-07T08:16:37.375Z,11.00
2018-12-07T08:19:07.463Z,11.00
2018-12-07T08:21:36.171Z,11.00
2018-12-07T08:24:05.951Z,11.00
2018-12-07T08:26:34.729Z,11.00
2018-12-07T08:29:04.782Z,11.00
2018-12-07T08:31:37.299Z,11.00
2018-12-07T08:34:05.957Z,11.00
2018-12-07T08:36:36.211Z,11.00
2018-12-07T08:39:09.082Z,11.00
2018-12-07T08:41:38.641Z,11.00
2018-12-07T08:44:11.730Z,11.00
2018-12-07T08:46:42.602Z,11.00
2018-12-07T08:49:11.652Z,11.00
2018-12-07T08:51:40.728Z,11.00
2018-12-07T08:54:10.802Z,11.00
2018-12-07T08:56:40.906Z,11.00
2018-12-07T08:59:11.439Z,11.00
2018-12-07T09:01:40.323Z,11.00
2018-12-07T09:04:09.311Z,11.00
2018-12-07T09:06:39.291Z,11.00
2018-12-07T09:09:10.585Z,11.00
2018-12-07T09:11:39.214Z,11.00
2018-12-07T09:14:07.591Z,11.10
2018-12-07T09:16:37.045Z,11.10
2018-12-07T09:19:05.869Z,11.10
2018-12-07T09:21:36.143Z,11.20
2018-12-07T09:24:04.780Z,11.20
2018-12-07T09:26:34.572Z,11.20
2018-12-07T09:29:05.778Z,11.20
2018-12-07T09:31:37.127Z,11.20
2018-12-07T09:34:07.158Z,11.20
2018-12-07T09:36:37.476Z,11.20
2018-12-07T09:39:10.080Z,11.20
2018-12-07T09:41:47.828Z,11.20
2018-12-07T09:44:17.100Z,11.20
2018-12-07T09:46:46.894Z,11.20
2018-12-07T09:49:16.284Z,11.20
2018-12-07T09:51:45.390Z,11.30
2018-12-07T09:54:18.778Z,11.30
2018-12-07T09:56:48.194Z,11.30
2018-12-07T09:59:17.269Z,11.30
2018-12-07T10:01:46.042Z,11.30
2018-12-07T10:04:17.413Z,11.30
2018-12-07T10:06:46.998Z,11.30
2018-12-07T10:09:21.658Z,11.30
2018-12-07T10:11:51.430Z,11.30
2018-12-07T10:14:20.392Z,11.30
2018-12-07T10:16:50.099Z,11.30
2018-12-07T10:19:22.619Z,11.30
2018-12-07T10:21:53.342Z,11.30
2018-12-07T10:24:21.894Z,11.30
2018-12-07T10:26:52.122Z,11.30
2018-12-07T10:29:20.691Z,11.30
2018-12-07T10:31:50.855Z,11.30
2018-12-07T10:34:22.594Z,11.30
2018-12-07T10:36:54.672Z,11.30
2018-12-07T10:39:23.438Z,11.30
2018-12-07T10:41:55.984Z,11.30
2018-12-07T10:44:27.862Z,11.20
2018-12-07T10:46:58.025Z,11.20
2018-12-07T10:49:27.617Z,11.20
2018-12-07T10:51:56.245Z,11.20
2018-12-07T10:54:26.599Z,11.20
2018-12-07T10:56:55.902Z,11.20
2018-12-07T10:59:25.054Z,11.10
2018-12-07T11:01:59.657Z,11.20
2018-12-07T11:04:34.051Z,11.20
2018-12-07T11:07:07.991Z,11.20
2018-12-07T11:09:42.295Z,11.10
2018-12-07T11:12:16.650Z,11.10
2018-12-07T11:14:50.760Z,11.10
2018-12-07T11:17:24.633Z,11.10
2018-12-07T11:20:00.251Z,11.10
2018-12-07T11:22:36.219Z,11.20
2018-12-07T11:25:11.943Z,11.20
2018-12-07T11:27:45.655Z,11.20
2018-12-07T11:30:21.112Z,11.20
2018-12-07T11:32:55.104Z,11.20
2018-12-07T11:35:28.045Z,11.20
2018-12-07T11:37:58.070Z,11.20
2018-12-07T11:40:28.628Z,11.20
2018-12-07T11:42:57.594Z,11.20
2018-12-07T11:45:25.997Z,11.20
2018-12-07T11:47:55.198Z,11.20
2018-12-07T11:50:25.287Z,11.20
2018-12-07T11:52:54.902Z,11.20
2018-12-07T11:55:24.026Z,11.20
2018-12-07T11:57:59.344Z,11.20
2018-12-07T12:00:28.458Z,11.30
2018-12-07T12:02:57.956Z,11.30
2018-12-07T12:05:26.595Z,11.40
2018-12-07T12:07:55.198Z,11.40
2018-12-07T12:10:24.555Z,11.40
2018-12-07T12:12:55.016Z,11.50
2018-12-07T12:15:26.501Z,11.50
2018-12-07T12:18:00.069Z,11.50
2018-12-07T12:20:29.622Z,11.50
2018-12-07T12:23:00.630Z,11.60
2018-12-07T12:25:28.996Z,11.60
2018-12-07T12:28:28.039Z,11.50
2018-12-07T12:30:58.363Z,11.50
2018-12-07T12:33:28.053Z,11.50
2018-12-07T12:35:57.843Z,11.40
2018-12-07T12:38:27.638Z,11.40
2018-12-07T12:40:56.251Z,11.30
2018-12-07T12:43:25.682Z,11.30
2018-12-07T12:46:02.658Z,11.30
2018-12-07T12:48:31.983Z,11.20
2018-12-07T12:51:00.595Z,11.20
2018-12-07T12:53:29.691Z,11.20
2018-12-07T12:56:00.649Z,11.20
2018-12-07T12:58:30.738Z,11.20
2018-12-07T13:00:59.755Z,11.10
2018-12-07T13:03:28.099Z,11.10
2018-12-07T13:05:56.505Z,11.10
2018-12-07T13:08:24.899Z,11.10
2018-12-07T13:10:53.267Z,11.10
2018-12-07T13:13:22.024Z,11.10
2018-12-07T13:15:50.376Z,11.00
2018-12-07T13:18:18.755Z,11.00
2018-12-07T13:20:47.376Z,11.00
2018-12-07T13:23:16.522Z,11.00
2018-12-07T13:25:44.910Z,11.00
2018-12-07T13:28:13.305Z,11.00
2018-12-07T13:30:41.935Z,11.00
2018-12-07T13:33:10.316Z,11.00
2018-12-07T13:35:38.678Z,11.00
2018-12-07T13:38:07.043Z,11.00
2018-12-07T13:40:35.478Z,10.90
2018-12-07T13:43:04.604Z,10.90
2018-12-07T13:45:33.273Z,10.90
2018-12-07T13:48:02.153Z,10.90
2018-12-07T13:50:36.144Z,10.90
2018-12-07T13:53:05.954Z,10.90
2018-12-07T13:55:37.092Z,10.90
2018-12-07T13:58:07.595Z,10.90
2018-12-07T14:00:36.796Z,10.80
2018-12-07T14:03:06.359Z,10.80
2018-12-07T14:05:34.981Z,10.80
2018-12-07T14:08:04.403Z,10.80
2018-12-07T14:10:33.290Z,10.80
2018-12-07T14:13:03.371Z,10.80
2018-12-07T14:15:31.937Z,10.80
2018-12-07T14:18:00.391Z,10.80
2018-12-07T14:20:31.243Z,10.70
2018-12-07T14:23:00.665Z,10.70
2018-12-07T14:25:29.398Z,10.70
2018-12-07T14:27:58.177Z,10.70
2018-12-07T14:30:27.494Z,10.80
2018-12-07T14:32:56.422Z,10.70
2018-12-07T14:35:25.701Z,10.80
2018-12-07T14:37:55.252Z,10.70
2018-12-07T14:40:25.040Z,10.70
2018-12-07T14:42:53.826Z,10.70
2018-12-07T14:45:23.161Z,10.70
2018-12-07T14:47:51.970Z,10.70
2018-12-07T14:50:20.548Z,10.70
2018-12-07T14:53:53.160Z,10.70
2018-12-07T14:56:21.990Z,10.70
2018-12-07T14:58:50.538Z,10.60
2018-12-07T15:01:19.012Z,10.10
2018-12-07T15:03:48.370Z,9.80
2018-12-07T15:06:16.833Z,9.60
2018-12-07T15:08:45.421Z,9.50
2018-12-07T15:11:14.152Z,9.50
2018-12-07T15:13:42.820Z,9.40
2018-12-07T15:17:41.396Z,9.30
2018-12-07T15:20:10.684Z,9.20
2018-12-07T15:22:39.627Z,9.10
2018-12-07T15:25:10.021Z,9.00
2018-12-07T15:27:41.432Z,8.90
2018-12-07T15:30:10.884Z,8.90
2018-12-07T15:32:39.551Z,8.90
2018-12-07T15:35:10.407Z,8.80
2018-12-07T15:37:39.717Z,8.80
2018-12-07T15:40:10.353Z,8.60
2018-12-07T15:42:40.051Z,8.50
2018-12-07T15:45:09.806Z,8.30
2018-12-07T15:47:38.604Z,8.30
2018-12-07T15:50:09.045Z,8.10
2018-12-07T15:52:37.807Z,8.10
2018-12-07T15:55:06.841Z,8.00
2018-12-07T15:57:35.598Z,8.00
2018-12-07T16:00:05.863Z,8.00
2018-12-07T16:02:36.368Z,8.00
2018-12-07T16:05:06.043Z,7.90
2018-12-07T16:07:34.710Z,7.90
2018-12-07T16:10:05.075Z,7.90
2018-12-07T16:12:34.500Z,7.90
2018-12-07T16:15:04.010Z,7.80
2018-12-07T16:17:32.762Z,7.80
2018-12-07T16:20:01.662Z,7.80
2018-12-07T16:22:32.587Z,7.80
2018-12-07T16:25:01.653Z,7.80
2018-12-07T16:27:32.531Z,7.80
2018-12-07T16:30:02.553Z,7.80
2018-12-07T16:32:31.667Z,7.80
2018-12-07T16:35:00.862Z,7.90
2018-12-07T16:37:30.504Z,7.90
2018-12-07T16:39:59.601Z,7.90
2018-12-07T16:42:29.664Z,7.80
2018-12-07T16:44:58.999Z,7.80
2018-12-07T16:47:32.186Z,7.80
2018-12-07T16:50:02.930Z,7.80
2018-12-07T16:52:32.329Z,7.70
2018-12-07T16:55:01.165Z,7.70
2018-12-07T16:57:31.886Z,7.70
2018-12-07T17:00:01.621Z,7.70
2018-12-07T17:02:30.610Z,7.70
2018-12-07T17:05:02.076Z,7.70
2018-12-07T17:07:31.674Z,7.60
2018-12-07T17:10:00.273Z,7.60
2018-12-07T17:12:28.956Z,7.70
2018-12-07T17:14:58.644Z,7.70
2018-12-07T17:17:27.236Z,7.80
2018-12-07T17:19:57.787Z,7.80
2018-12-07T17:22:26.982Z,7.80
2018-12-07T17:24:55.798Z,7.90
2018-12-07T17:27:24.511Z,7.90
2018-12-07T17:29:54.171Z,7.90
2018-12-07T17:32:23.331Z,7.90
2018-12-07T17:34:53.699Z,7.80
2018-12-07T17:37:22.956Z,7.80
2018-12-07T17:39:51.906Z,7.70
2018-12-07T17:42:20.508Z,7.80
2018-12-07T17:44:50.097Z,7.70
2018-12-07T17:47:20.111Z,7.70
2018-12-07T17:49:48.783Z,7.70
2018-12-07T17:52:18.694Z,7.70
2018-12-07T17:54:47.222Z,7.80
2018-12-07T17:57:16.069Z,7.90
2018-12-07T17:59:45.367Z,7.90
2018-12-07T18:02:14.423Z,7.90
2018-12-07T18:04:42.909Z,7.80
2018-12-07T18:07:13.408Z,7.80
2018-12-07T18:09:44.149Z,7.80
2018-12-07T18:12:13.670Z,7.70
2018-12-07T18:14:44.295Z,7.60
2018-12-07T18:17:12.700Z,7.60
2018-12-07T18:19:41.762Z,7.40
2018-12-07T18:22:11.999Z,7.40
2018-12-07T18:24:42.220Z,7.30
2018-12-07T18:27:10.882Z,7.30
2018-12-07T18:29:41.678Z,7.40
2018-12-07T18:32:11.678Z,7.40
2018-12-07T18:34:41.299Z,7.30
2018-12-07T18:37:10.789Z,7.40
2018-12-07T18:39:40.457Z,7.30
2018-12-07T18:42:10.298Z,7.30
2018-12-07T18:44:40.413Z,7.30
2018-12-07T18:47:09.510Z,7.20
2018-12-07T18:49:38.898Z,7.30
2018-12-07T18:52:08.274Z,7.30
2018-12-07T18:54:37.822Z,7.40
2018-12-07T18:57:07.054Z,7.40
2018-12-07T18:59:37.510Z,7.40
2018-12-07T19:02:08.099Z,7.40
2018-12-07T19:04:37.641Z,7.40
2018-12-07T19:07:06.362Z,7.40
2018-12-07T19:09:34.794Z,7.30
2018-12-07T19:12:03.685Z,7.30
2018-12-07T19:14:32.588Z,7.30
2018-12-07T19:17:02.754Z,7.30
2018-12-07T19:22:11.452Z,7.30
2018-12-07T19:24:40.598Z,7.30
2018-12-07T19:27:10.127Z,7.30
2018-12-07T19:29:38.795Z,7.40
2018-12-07T19:32:08.102Z,7.40
2018-12-07T19:34:36.931Z,7.40
2018-12-07T19:37:05.670Z,7.40
2018-12-07T19:39:34.916Z,7.40
2018-12-07T19:42:04.417Z,7.40
2018-12-07T19:44:33.876Z,7.40
2018-12-07T19:47:04.360Z,7.40
2018-12-07T19:49:33.999Z,7.40
2018-12-07T19:52:03.897Z,7.40
2018-12-07T19:54:32.499Z,7.40
2018-12-07T19:57:01.855Z,7.40
2018-12-07T19:59:30.686Z,7.40
2018-12-07T20:02:00.721Z,7.30
2018-12-07T20:04:29.454Z,7.30
2018-12-07T20:06:59.090Z,7.30
2018-12-07T20:09:27.838Z,7.30
2018-12-07T20:11:56.570Z,7.20
2018-12-07T20:14:25.478Z,7.20
2018-12-07T20:16:54.902Z,7.10
2018-12-07T20:19:23.556Z,7.20
2018-12-07T20:21:52.218Z,7.10
2018-12-07T20:24:21.482Z,7.20
2018-12-07T20:26:50.275Z,7.10
2018-12-07T20:29:19.228Z,7.20
2018-12-07T20:31:47.731Z,7.20
2018-12-07T20:34:16.403Z,7.20
2018-12-07T20:36:44.855Z,7.10
2018-12-07T20:39:14.708Z,7.00
2018-12-07T20:41:45.557Z,7.00
2018-12-07T20:44:14.198Z,7.00
2018-12-07T20:46:44.320Z,7.00
2018-12-07T20:49:14.666Z,7.10
2018-12-07T20:51:44.073Z,7.00
2018-12-07T20:54:12.878Z,7.20
2018-12-07T20:56:42.320Z,7.10
2018-12-07T20:59:11.597Z,7.20
2018-12-07T21:01:51.603Z,7.20
2018-12-07T21:04:33.530Z,7.30
2018-12-07T21:08:12.170Z,7.30
2018-12-07T21:11:25.649Z,7.20
2018-12-07T21:14:02.579Z,7.40
2018-12-07T21:17:20.974Z,7.40
2018-12-07T21:19:59.530Z,7.40
2018-12-07T21:22:29.181Z,7.40
2018-12-07T21:24:58.696Z,7.40
2018-12-07T21:27:28.855Z,7.40
2018-12-07T21:31:03.358Z,7.40
2018-12-07T21:34:40.947Z,7.50
2018-12-07T21:37:09.575Z,7.50
2018-12-07T21:39:43.092Z,7.50
2018-12-07T21:42:12.170Z,7.50
2018-12-07T21:44:40.580Z,7.50
2018-12-07T21:47:08.989Z,7.50
2018-12-07T21:49:44.705Z,7.50
2018-12-07T21:52:19.566Z,7.40
2018-12-07T21:54:49.015Z,7.30
2018-12-07T21:57:18.029Z,7.20
2018-12-07T21:59:46.559Z,7.10
2018-12-07T22:02:15.386Z,7.10
2018-12-07T22:04:45.676Z,7.20
2018-12-07T22:07:15.154Z,7.20
2018-12-07T22:09:43.958Z,7.20
2018-12-07T22:12:13.562Z,7.30
2018-12-07T22:14:42.455Z,7.30
2018-12-07T22:17:12.452Z,7.30
2018-12-07T22:19:41.330Z,7.30
2018-12-07T22:22:10.592Z,7.30
2018-12-07T22:24:40.734Z,7.30
2018-12-07T22:27:10.858Z,7.20
2018-12-07T22:29:41.045Z,7.30
2018-12-07T22:32:09.934Z,7.20
2018-12-07T22:34:39.059Z,7.20
2018-12-07T22:37:08.947Z,7.20
2018-12-07T22:39:37.584Z,7.20
2018-12-07T22:42:06.732Z,7.20
2018-12-07T22:44:35.335Z,7.30
2018-12-07T22:47:06.798Z,7.30
2018-12-07T22:49:36.954Z,7.30
2018-12-07T22:52:07.983Z,7.30
2018-12-07T22:54:37.685Z,7.30
2018-12-07T22:57:06.929Z,7.30
2018-12-07T22:59:35.751Z,7.30
2018-12-07T23:02:04.907Z,7.30
2018-12-07T23:04:36.240Z,7.10
2018-12-07T23:07:06.867Z,7.10
2018-12-07T23:09:36.512Z,7.20
2018-12-07T23:12:05.340Z,7.30
2018-12-07T23:14:34.490Z,7.30
2018-12-07T23:17:02.915Z,7.30
2018-12-07T23:19:35.046Z,7.30
2018-12-07T23:22:05.815Z,7.20
2018-12-07T23:24:34.190Z,7.20
2018-12-07T23:27:03.736Z,7.10
2018-12-07T23:29:32.818Z,7.10
2018-12-07T23:32:01.480Z,7.10
2018-12-07T23:34:29.865Z,7.10
2018-12-07T23:36:59.538Z,7.10
2018-12-07T23:39:28.248Z,7.10
2018-12-07T23:41:57.947Z,7.10
2018-12-07T23:44:26.339Z,7.10
2018-12-07T23:46:54.706Z,7.20
2018-12-07T23:49:23.915Z,7.10
2018-12-07T23:51:52.962Z,7.20
2018-12-07T23:54:23.985Z,7.20
2018-12-07T23:56:53.690Z,7.10
2018-12-07T23:59:22.066Z,7.10
